Time;durP1;ratioP1;P1;durP2;ratioP2;P2;SDS_P1;SDS_P2;PMS_P1;PMS_P2;Temp;Humidity;BMP_temperature;BMP_pressure;BME280_temperature;BME280_humidity;BME280_pressure;Samples;Min_cycle;Max_cycle;Signal;HPM_P1;HPM_P2
2021/04/02 00:00:51;;;;;;;14.13;6.15;;;;;;;0.68;81.06;101730.02;1753530;81;21853;-83
2021/04/02 00:03:27;;;;;;;13.10;7.00;;;;;;;0.69;81.07;101727.02;1763493;81;21080;-83
2021/04/02 00:05:55;;;;;;;15.00;7.72;;;;;;;0.68;81.10;101716.16;1753560;81;21359;-83
2021/04/02 00:08:23;;;;;;;13.43;7.15;;;;;;;0.68;81.14;101711.87;1763460;81;21235;-83
2021/04/02 00:10:57;;;;;;;13.08;7.85;;;;;;;0.68;81.17;101710.58;1707600;84;21180;-83
2021/04/02 00:13:31;;;;;;;;;;;;;;;0.66;81.22;101708.66;1766073;81;22728;-82
2021/04/02 00:15:59;;;;;;;17.60;8.70;;;;;;;0.65;81.29;101701.65;1763554;81;20255;-82
2021/04/02 00:18:28;;;;;;;15.40;9.10;;;;;;;0.66;81.38;101700.88;1707456;84;21592;-82
2021/04/02 00:20:57;;;;;;;15.10;9.43;;;;;;;0.65;81.41;101701.25;1763600;81;21216;-82
2021/04/02 00:23:25;;;;;;;13.90;9.55;;;;;;;0.65;81.50;101696.06;1763410;81;21685;-82
2021/04/02 00:25:52;;;;;;;15.40;10.00;;;;;;;0.65;81.48;101696.06;1763587;81;21910;-82
2021/04/02 00:28:19;;;;;;;15.43;9.95;;;;;;;0.63;81.44;101688.97;1707406;84;21076;-82
2021/04/02 00:30:52;;;;;;;15.23;9.30;;;;;;;0.64;81.49;101692.05;1763556;81;21167;-82
2021/04/02 00:33:21;;;;;;;15.10;10.15;;;;;;;0.63;81.57;101687.67;1763763;81;21149;-83
2021/04/02 00:35:48;;;;;;;12.60;8.83;;;;;;;0.62;81.54;101681.59;1664473;84;21215;-83
2021/04/02 00:38:15;;;;;;;13.45;8.98;;;;;;;0.60;81.58;101683.12;1692834;84;21831;-83
2021/04/02 00:40:52;;;;;;;13.22;8.88;;;;;;;0.60;81.58;101679.64;1692924;84;21178;-83
2021/04/02 00:43:23;;;;;;;15.23;8.80;;;;;;;0.58;81.54;101680.44;1693071;84;21563;-83
2021/04/02 00:45:50;;;;;;;12.93;8.83;;;;;;;0.57;81.49;101677.72;1692489;84;21160;-84
2021/04/02 00:48:17;;;;;;;12.40;8.15;;;;;;;0.55;81.46;101663.75;1693066;84;21574;-83
2021/04/02 00:50:55;;;;;;;10.78;7.95;;;;;;;0.54;81.46;101661.52;1692803;83;22076;-83
2021/04/02 00:53:26;;;;;;;13.40;8.20;;;;;;;0.53;81.45;101661.03;1692879;84;21132;-84
2021/04/02 00:55:53;;;;;;;8.58;7.15;;;;;;;0.53;81.51;101670.50;1692845;84;21143;-83
2021/04/02 00:58:24;;;;;;;10.93;7.28;;;;;;;0.52;81.55;101669.97;1692965;84;21176;-83
2021/04/02 01:00:51;;;;;;;11.88;7.65;;;;;;;0.52;81.56;101667.37;1692910;84;21167;-83
2021/04/02 01:03:21;;;;;;;8.63;6.92;;;;;;;0.49;81.59;101665.45;1692842;84;21958;-82
2021/04/02 01:05:50;;;;;;;11.03;7.20;;;;;;;0.50;81.68;101670.23;1692694;83;21642;-82
2021/04/02 01:08:27;;;;;;;15.00;7.15;;;;;;;0.49;81.73;101670.64;1692807;84;21176;-82
2021/04/02 01:10:56;;;;;;;10.82;6.65;;;;;;;0.49;81.77;101671.00;1695097;83;21613;-82
2021/04/02 01:13:29;;;;;;;9.30;6.50;;;;;;;0.47;81.71;101669.61;1695399;84;21199;-82
2021/04/02 01:16:12;;;;;;;11.88;7.40;;;;;;;0.45;81.75;101671.18;1694483;84;21819;-82
2021/04/02 01:18:53;;;;;;;11.25;7.62;;;;;;;0.43;81.79;101674.00;1695386;84;21172;-83
2021/04/02 01:21:31;;;;;;;11.63;7.80;;;;;;;0.43;81.82;101667.93;1695418;84;21077;-84
2021/04/02 01:24:06;;;;;;;13.03;8.00;;;;;;;0.41;81.90;101678.16;1695304;84;21222;-82
2021/04/02 01:26:42;;;;;;;10.80;7.55;;;;;;;0.38;81.90;101668.88;1695400;84;21167;-82
2021/04/02 01:29:32;;;;;;;11.28;7.22;;;;;;;0.37;81.90;101678.70;1695408;84;21914;-83
2021/04/02 01:32:01;;;;;;;10.82;6.92;;;;;;;0.35;81.97;101668.21;1694987;83;21650;-83
2021/04/02 01:34:38;;;;;;;11.57;7.17;;;;;;;0.34;81.96;101665.13;1695451;84;21167;-83
2021/04/02 01:37:11;;;;;;;9.93;6.65;;;;;;;0.31;81.97;101674.33;1695429;84;21211;-83
2021/04/02 01:39:41;;;;;;;13.25;8.13;;;;;;;0.31;82.09;101671.73;1695517;84;21203;-83
2021/04/02 01:42:12;;;;;;;12.00;7.87;;;;;;;0.29;82.04;101675.49;1695355;84;21998;-83
2021/04/02 01:44:39;;;;;;;12.03;7.50;;;;;;;0.29;82.10;101677.19;1695236;83;21594;-83
2021/04/02 01:47:07;;;;;;;12.95;7.65;;;;;;;0.27;82.15;101679.65;1663776;84;21168;-82
2021/04/02 01:49:37;;;;;;;12.58;7.42;;;;;;;0.24;82.08;101673.31;1663686;84;21184;-83
2021/04/02 01:52:06;;;;;;;15.45;8.55;;;;;;;0.22;82.11;101676.17;1663868;84;21572;-84
2021/04/02 01:54:34;;;;;;;11.15;8.10;;;;;;;0.19;82.19;101685.50;1695347;84;21984;-84
2021/04/02 01:57:01;;;;;;;12.60;8.15;;;;;;;0.18;82.11;101684.08;1695290;84;21586;-83
2021/04/02 01:59:28;;;;;;;11.57;8.23;;;;;;;0.13;82.10;101675.95;1695314;84;21167;-82
2021/04/02 02:01:56;;;;;;;13.13;8.88;;;;;;;0.11;82.15;101675.29;1695194;84;21184;-83
2021/04/02 02:04:24;;;;;;;15.30;9.05;;;;;;;0.09;82.15;101671.67;1695457;84;21155;-83
2021/04/02 02:06:52;;;;;;;13.13;8.78;;;;;;;0.05;82.17;101669.22;1695326;84;22748;-82
2021/04/02 02:09:30;;;;;;;12.43;8.78;;;;;;;0.04;82.25;101675.20;1695252;83;21271;-83
2021/04/02 02:12:00;;;;;;;11.73;8.50;;;;;;;0.04;82.27;101688.14;1695355;84;21132;-83
2021/04/02 02:14:31;;;;;;;10.88;7.72;;;;;;;0.02;82.26;101689.70;1695331;84;21206;-83
2021/04/02 02:17:01;;;;;;;13.25;8.83;;;;;;;-0.01;82.30;101682.56;1695107;83;21649;-83
2021/04/02 02:19:31;;;;;;;9.85;8.30;;;;;;;-0.01;82.30;101684.26;1695218;84;22110;-83
2021/04/02 02:22:00;;;;;;;12.70;8.08;;;;;;;-0.05;82.24;101688.27;1695290;84;21167;-82
2021/04/02 02:24:28;;;;;;;10.23;8.35;;;;;;;-0.07;82.23;101685.95;1695112;84;21171;-83
2021/04/02 02:26:55;;;;;;;13.35;8.05;;;;;;;-0.07;82.29;101680.77;1695089;84;21669;-83
2021/04/02 02:29:24;;;;;;;12.13;8.25;;;;;;;-0.08;82.27;101670.29;1695193;84;21222;-83
2021/04/02 02:31:54;;;;;;;10.78;8.08;;;;;;;-0.08;82.23;101664.72;1694982;84;21928;-83
2021/04/02 02:34:22;;;;;;;9.50;7.92;;;;;;;-0.09;82.25;101668.10;1664358;84;21191;-85
2021/04/02 02:36:56;;;;;;;12.30;8.55;;;;;;;-0.09;82.22;101665.52;1697242;80;21127;-84
2021/04/02 02:39:23;;;;;;;10.75;7.95;;;;;;;-0.10;82.29;101658.91;1724581;80;22397;-84
2021/04/02 02:41:50;;;;;;;10.32;7.45;;;;;;;-0.13;82.35;101659.58;1712037;82;21200;-84
2021/04/02 02:44:18;;;;;;;9.70;7.80;;;;;;;-0.14;82.39;101645.20;1715936;83;22077;-82
2021/04/02 02:46:45;;;;;;;9.80;7.53;;;;;;;-0.14;82.35;101647.80;1713550;83;21294;-83
2021/04/02 02:49:16;;;;;;;8.50;6.90;;;;;;;-0.16;82.42;101637.31;1715918;83;21215;-82
2021/04/02 02:51:43;;;;;;;11.40;8.15;;;;;;;-0.17;82.47;101633.30;1713725;83;21269;-83
2021/04/02 02:54:20;;;;;;;7.75;6.95;;;;;;;-0.16;82.55;101630.84;1716170;83;21610;-84
2021/04/02 02:56:49;;;;;;;10.23;7.53;;;;;;;-0.16;82.61;101634.73;1721058;83;21918;-83
2021/04/02 02:59:21;;;;;;;9.80;7.78;;;;;;;-0.17;82.62;101634.59;1724071;83;21544;-82
2021/04/02 03:01:48;;;;;;;9.83;7.85;;;;;;;-0.17;82.68;101637.19;1724163;83;21207;-82
2021/04/02 03:04:17;;;;;;;9.68;7.85;;;;;;;-0.17;82.73;101634.20;1723975;83;21594;-81
2021/04/02 03:06:46;;;;;;;9.85;8.18;;;;;;;-0.17;82.73;101626.83;1724058;83;21257;-82
2021/04/02 03:09:15;;;;;;;9.88;7.87;;;;;;;-0.17;82.79;101628.12;1724003;83;21958;-83
2021/04/02 03:11:46;;;;;;;9.33;7.90;;;;;;;-0.17;82.82;101619.97;1723920;83;21247;-82
2021/04/02 03:14:19;;;;;;;11.70;8.20;;;;;;;-0.17;82.83;101619.07;1724487;83;21184;-83
2021/04/02 03:16:50;;;;;;;10.23;8.63;;;;;;;-0.17;82.81;101619.97;1724148;83;21346;-83
2021/04/02 03:19:23;;;;;;;11.10;8.30;;;;;;;-0.17;82.76;101616.08;1724312;82;21107;-83
2021/04/02 03:21:51;;;;;;;10.60;9.00;;;;;;;-0.18;82.75;101616.87;1724237;83;21958;-83
2021/04/02 03:24:19;;;;;;;9.15;8.10;;;;;;;-0.19;82.80;101609.87;1724100;83;21143;-83
2021/04/02 03:26:53;;;;;;;11.85;9.48;;;;;;;-0.18;82.84;101612.11;1724159;83;21207;-83
2021/04/02 03:29:22;;;;;;;12.98;8.95;;;;;;;-0.21;82.79;101613.67;1693020;83;21522;-84
2021/04/02 03:31:52;;;;;;;15.43;9.93;;;;;;;-0.23;82.84;101608.72;1724599;83;21175;-83
2021/04/02 03:34:20;;;;;;;12.30;10.20;;;;;;;-0.24;82.89;101609.52;1724433;82;21895;-84
2021/04/02 03:36:49;;;;;;;12.30;10.25;;;;;;;-0.23;82.93;101607.43;1692103;83;21199;-84
2021/04/02 03:39:21;;;;;;;12.20;9.75;;;;;;;-0.24;82.91;101612.50;1724287;83;21128;-84
2021/04/02 03:41:52;;;;;;;13.40;10.32;;;;;;;-0.25;82.95;101609.39;1724416;83;21583;-83
2021/04/02 03:44:20;;;;;;;10.95;9.40;;;;;;;-0.25;82.96;101609.39;1724140;83;21136;-84
2021/04/02 03:46:49;;;;;;;11.53;10.00;;;;;;;-0.25;83.01;101601.62;1724490;83;22808;-83
2021/04/02 03:49:22;;;;;;;12.95;10.78;;;;;;;-0.25;83.01;101606.41;1724217;83;21144;-83
2021/04/02 03:51:52;;;;;;;13.05;9.85;;;;;;;-0.25;83.01;101599.04;1724352;83;21185;-83
2021/04/02 03:54:19;;;;;;;12.05;10.18;;;;;;;-0.24;83.03;101599.57;1724420;83;21139;-83
2021/04/02 03:56:48;;;;;;;13.65;9.50;;;;;;;-0.24;83.01;101603.45;1724443;83;21590;-83
2021/04/02 03:59:15;;;;;;;11.33;9.38;;;;;;;-0.24;83.09;101601.76;1724435;83;21905;-83
2021/04/02 04:01:45;;;;;;;12.18;9.45;;;;;;;-0.24;83.08;101600.47;1724206;83;21196;-84
2021/04/02 04:04:12;;;;;;;13.25;10.82;;;;;;;-0.24;83.13;101602.16;1724448;83;21151;-84
2021/04/02 04:06:40;;;;;;;12.63;10.70;;;;;;;-0.23;83.22;101602.25;1724500;83;21161;-83
2021/04/02 04:09:11;;;;;;;11.40;10.20;;;;;;;-0.20;83.31;101605.11;1724338;83;21671;-83
2021/04/02 04:11:38;;;;;;;15.75;11.38;;;;;;;-0.18;83.25;101604.34;1721486;81;21911;-84
2021/04/02 04:14:06;;;;;;;14.35;10.78;;;;;;;-0.18;83.23;101603.05;1721725;83;21682;-84
2021/04/02 04:16:35;;;;;;;11.83;9.50;;;;;;;-0.17;83.33;101601.85;1721717;83;21196;-84
2021/04/02 04:19:04;;;;;;;14.28;10.45;;;;;;;-0.14;83.36;101599.52;1721613;83;21220;-84
2021/04/02 04:21:39;;;;;;;14.93;10.45;;;;;;;-0.10;83.33;101598.09;1721852;83;21145;-85
2021/04/02 04:24:11;;;;;;;14.23;11.05;;;;;;;-0.07;83.41;101595.37;1719959;83;21399;-84
2021/04/02 04:26:39;;;;;;;15.18;11.20;;;;;;;-0.02;83.44;101589.25;1721317;83;21618;-82
2021/04/02 04:29:12;;;;;;;14.07;11.08;;;;;;;0.04;83.45;101588.84;1721215;83;21587;-84
2021/04/02 04:31:48;;;;;;;12.35;9.60;;;;;;;0.09;83.50;101587.54;1693953;83;21678;-82
2021/04/02 04:34:15;;;;;;;12.15;9.80;;;;;;;0.15;83.45;101582.48;1721625;83;21227;-84
2021/04/02 04:36:44;;;;;;;10.43;8.50;;;;;;;0.22;83.37;101581.66;1717262;83;21883;-84
2021/04/02 04:39:11;;;;;;;11.55;9.35;;;;;;;0.28;83.33;101578.26;1643325;84;21179;-90
2021/04/02 04:44:24;;;;;;;9.00;8.10;;;;;;;0.70;83.96;101572.08;1862246;75;22489;-85
2021/04/02 04:46:51;;;;;;;11.85;8.33;;;;;;;1.94;86.17;101565.83;1826396;78;21106;-86
2021/04/02 04:49:18;;;;;;;10.38;7.47;;;;;;;3.54;86.05;101556.50;1829216;78;21876;-87
2021/04/02 04:51:46;;;;;;;9.35;6.95;;;;;;;5.02;84.98;101553.67;1829271;78;21182;-89
2021/04/02 04:54:13;;;;;;;7.65;6.78;;;;;;;6.28;83.32;101549.61;1829408;78;21178;-90
2021/04/02 04:56:40;;;;;;;9.53;6.85;;;;;;;7.42;81.68;101537.70;1829226;78;21142;-92
2021/04/02 04:59:08;;;;;;;9.73;6.60;;;;;;;8.49;80.32;101537.66;1829491;78;21608;-88
2021/04/02 05:01:40;;;;;;;7.45;6.33;;;;;;;9.52;78.70;101537.34;1799649;78;22948;-95
2021/04/02 05:04:08;;;;;;;6.62;5.92;;;;;;;10.37;76.99;101530.23;1835705;76;21158;-87
2021/04/02 05:06:36;;;;;;;7.12;5.87;;;;;;;11.17;75.87;101526.58;1829400;76;21139;-87
2021/04/02 05:09:06;;;;;;;5.20;4.67;;;;;;;11.86;74.11;101525.83;1799321;78;21124;-93
2021/04/02 05:11:36;;;;;;;7.17;5.55;;;;;;;12.03;72.52;101520.20;1829774;78;21135;-89
2021/04/02 05:14:03;;;;;;;6.22;5.30;;;;;;;11.50;70.00;101520.22;1761283;81;22104;-91
2021/04/02 05:16:30;;;;;;;5.80;5.20;;;;;;;10.65;68.38;101525.16;1792673;80;21171;-88
2021/04/02 05:18:57;;;;;;;9.45;5.37;;;;;;;9.78;67.91;101524.34;1792623;80;21179;-90
2021/04/02 05:21:24;;;;;;;6.22;5.20;;;;;;;8.94;67.54;101526.11;1794926;79;21629;-87
2021/04/02 05:23:54;;;;;;;6.10;5.00;;;;;;;8.29;68.17;101529.23;1795411;79;21093;-86
2021/04/02 05:26:21;;;;;;;5.47;4.65;;;;;;;7.94;68.60;101529.38;1795485;79;21996;-87
2021/04/02 05:31:29;;;;;;;11.48;4.10;;;;;;;7.66;69.19;101524.90;1888960;76;22835;-92
2021/04/02 05:33:56;;;;;;;5.97;4.85;;;;;;;7.50;69.39;101530.70;1786324;77;21151;-87
2021/04/02 05:36:26;;;;;;;6.25;4.95;;;;;;;7.39;69.35;101526.25;1826295;78;22851;-87
2021/04/02 05:38:53;;;;;;;5.62;4.62;;;;;;;7.18;69.26;101527.34;1856907;77;21129;-87
2021/04/02 05:41:28;;;;;;;6.37;4.25;;;;;;;6.96;69.10;101525.37;1857160;77;21118;-84
2021/04/02 05:43:56;;;;;;;5.97;4.70;;;;;;;6.77;69.11;101515.63;1856551;77;21119;-85
2021/04/02 05:46:24;;;;;;;5.90;4.33;;;;;;;6.60;69.22;101513.42;1826462;77;21043;-89
2021/04/02 05:49:00;;;;;;;5.62;4.83;;;;;;;6.48;69.29;101520.64;1855035;77;21842;-87
2021/04/02 05:51:37;;;;;;;7.25;4.95;;;;;;;6.43;69.56;101512.94;1811093;78;22780;-84
2021/04/02 05:54:07;;;;;;;7.78;5.15;;;;;;;6.38;69.83;101518.32;1789207;79;21198;-84
2021/04/02 05:56:34;;;;;;;6.05;5.30;;;;;;;6.35;69.77;101513.84;1765206;81;21930;-82
2021/04/02 05:59:01;;;;;;;6.20;5.28;;;;;;;6.38;70.04;101507.86;1760574;81;21576;-83
2021/04/02 06:01:28;;;;;;;8.60;5.37;;;;;;;6.32;69.49;101508.84;1761657;79;21134;-83
2021/04/02 06:03:56;;;;;;;6.35;5.50;;;;;;;6.16;69.55;101501.48;1792185;79;21185;-86
2021/04/02 06:06:25;;;;;;;6.80;5.15;;;;;;;6.01;69.65;101501.95;1796596;79;21147;-87
2021/04/02 06:08:52;;;;;;;6.08;4.60;;;;;;;5.85;69.54;101501.03;1796959;79;21900;-89
2021/04/02 06:11:19;;;;;;;5.70;4.90;;;;;;;5.71;69.53;101495.88;1787258;79;21162;-88
2021/04/02 06:13:46;;;;;;;35.15;14.03;;;;;;;5.53;69.59;101503.55;1765381;81;21194;-85
2021/04/02 06:16:13;;;;;;;15.63;9.48;;;;;;;5.44;69.80;101498.69;1765421;81;21317;-88
2021/04/02 06:18:41;;;;;;;13.98;9.13;;;;;;;5.35;69.99;101499.45;1760852;81;21146;-84
2021/04/02 06:21:08;;;;;;;9.88;6.70;;;;;;;5.32;70.21;101497.58;1771073;80;21890;-84
2021/04/02 06:23:37;;;;;;;9.33;5.87;;;;;;;5.30;70.34;101506.14;1789170;80;21176;-85
2021/04/02 06:26:12;;;;;;;9.23;6.90;;;;;;;5.25;70.33;101501.56;1789341;80;21543;-83
2021/04/02 06:28:41;;;;;;;9.43;6.65;;;;;;;5.25;70.50;101498.95;1792089;79;21215;-83
2021/04/02 06:31:16;;;;;;;8.25;6.47;;;;;;;5.25;70.59;101497.64;1796614;79;21238;-82
2021/04/02 06:33:52;;;;;;;8.03;5.70;;;;;;;5.29;70.66;101495.19;1796644;79;21962;-83
2021/04/02 06:36:27;;;;;;;7.58;5.72;;;;;;;5.35;70.68;101494.23;1796452;79;21167;-82
2021/04/02 06:39:04;;;;;;;6.92;4.90;;;;;;;5.40;70.67;101485.86;1796337;79;21187;-83
2021/04/02 06:41:34;;;;;;;8.93;6.10;;;;;;;5.48;70.57;101490.24;1795830;79;21155;-81
2021/04/02 06:44:04;;;;;;;11.38;5.47;;;;;;;5.60;70.71;101487.01;1796430;79;21641;-83
2021/04/02 06:46:37;;;;;;;11.08;7.12;;;;;;;5.82;70.95;101482.59;1790954;79;22870;-85
2021/04/02 06:49:13;;;;;;;7.80;5.83;;;;;;;6.15;71.12;101481.78;1789130;80;21179;-84
2021/04/02 06:51:46;;;;;;;8.80;5.62;;;;;;;6.45;71.03;101477.30;1781921;80;21164;-85
2021/04/02 06:54:14;;;;;;;9.25;6.20;;;;;;;6.73;70.82;101476.16;1781423;80;21199;-82
2021/04/02 06:56:45;;;;;;;10.70;5.62;;;;;;;6.94;70.49;101478.55;1781383;80;21171;-84
2021/04/02 06:59:17;;;;;;;7.53;5.78;;;;;;;7.09;70.28;101463.16;1781224;80;22265;-82
2021/04/02 07:01:48;;;;;;;11.25;4.85;;;;;;;7.24;70.14;101466.95;1780743;80;21253;-85
2021/04/02 07:04:15;;;;;;;6.35;3.80;;;;;;;7.29;69.67;101466.78;1756406;80;21130;-87
2021/04/02 07:06:42;;;;;;;8.55;4.78;;;;;;;7.34;69.47;101462.68;1754146;81;21185;-87
2021/04/02 07:09:09;;;;;;;6.83;3.90;;;;;;;7.40;69.57;101458.62;1756310;81;21224;-87
2021/04/02 07:11:38;;;;;;;7.03;3.90;;;;;;;7.55;69.53;101459.78;1756383;81;21956;-85
2021/04/02 07:14:09;;;;;;;8.68;5.95;;;;;;;7.69;69.32;101451.27;1755672;81;21220;-86
2021/04/02 07:16:35;;;;;;;7.60;4.35;;;;;;;7.74;68.87;101455.02;1756112;81;21229;-85
2021/04/02 07:19:03;;;;;;;8.90;4.67;;;;;;;7.76;68.84;101453.36;1758668;80;21620;-85
2021/04/02 07:21:30;;;;;;;8.33;5.40;;;;;;;7.79;68.57;101447.39;1787564;80;21139;-83
2021/04/02 07:23:57;;;;;;;6.28;3.47;;;;;;;7.82;68.58;101446.63;1775955;80;22064;-82
2021/04/02 07:26:24;;;;;;;6.80;4.00;;;;;;;7.93;68.72;101444.98;1768063;80;21180;-82
2021/04/02 07:28:52;;;;;;;4.67;3.20;;;;;;;8.11;68.83;101433.58;1763076;80;21185;-82
2021/04/02 07:31:19;;;;;;;4.85;3.67;;;;;;;8.22;68.54;101431.03;1756265;80;21240;-83
2021/04/02 07:33:46;;;;;;;4.87;3.20;;;;;;;8.29;68.37;101427.83;1768660;80;21646;-80
2021/04/02 07:36:13;;;;;;;6.58;3.15;;;;;;;8.37;68.31;101429.09;1781242;80;21964;-85
2021/04/02 07:38:41;;;;;;;4.42;3.65;;;;;;;8.46;68.02;101428.62;1756302;80;21764;-83
2021/04/02 07:41:10;;;;;;;6.47;4.80;;;;;;;8.57;68.15;101421.23;1787080;80;21224;-84
2021/04/02 07:43:55;;;;;;;8.63;4.20;;;;;;;8.86;68.39;101413.31;1782179;80;21160;-83
2021/04/02 07:46:26;;;;;;;7.05;4.90;;;;;;;9.25;68.50;101421.46;1785963;80;21124;-83
2021/04/02 07:49:03;;;;;;;6.45;5.08;;;;;;;9.76;68.33;101418.23;1780278;80;21884;-83
2021/04/02 07:51:49;;;;;;;7.20;4.08;;;;;;;10.08;67.62;101420.80;1764953;80;21220;-83
2021/04/02 07:54:35;;;;;;;7.25;4.33;;;;;;;10.30;66.96;101419.48;1776944;80;22134;-87
2021/04/02 07:57:17;;;;;;;8.53;4.90;;;;;;;10.43;66.46;101411.58;1787609;80;21607;-82
2021/04/02 07:59:46;;;;;;;6.97;4.83;;;;;;;10.55;66.07;101405.89;1786299;80;21614;-86
2021/04/02 08:02:30;;;;;;;7.10;4.40;;;;;;;10.59;65.59;101401.62;1762331;80;22220;-81
2021/04/02 08:04:57;;;;;;;11.65;7.67;;;;;;;10.66;65.37;101399.27;1780260;79;21120;-87
2021/04/02 08:07:40;;;;;;;9.08;6.22;;;;;;;10.74;65.28;101406.11;1780417;80;21159;-87
2021/04/02 08:10:12;;;;;;;5.75;4.72;;;;;;;10.85;65.18;101399.91;1779853;80;21180;-85
2021/04/02 08:12:39;;;;;;;6.90;4.42;;;;;;;10.95;64.71;101399.79;1756224;81;21580;-85
2021/04/02 08:15:16;;;;;;;6.47;4.42;;;;;;;10.95;64.45;101394.52;1756215;80;21715;-85
2021/04/02 08:17:43;;;;;;;8.05;4.60;;;;;;;10.89;64.36;101393.89;1754053;81;21209;-85
2021/04/02 08:20:16;;;;;;;8.08;3.98;;;;;;;10.87;64.22;101392.95;1755965;81;21261;-85
2021/04/02 08:22:43;;;;;;;4.80;3.45;;;;;;;10.92;64.49;101386.50;1756084;79;21198;-85
2021/04/02 08:25:12;;;;;;;4.80;3.25;;;;;;;10.99;64.19;101385.87;1769556;80;21623;-84
2021/04/02 08:27:41;;;;;;;7.85;3.72;;;;;;;10.94;63.75;101379.55;1775270;80;21906;-86
2021/04/02 08:30:09;;;;;;;4.42;3.50;;;;;;;10.82;63.66;101373.02;1756557;81;21584;-86
2021/04/02 08:32:48;;;;;;;4.85;3.90;;;;;;;10.67;63.33;101376.45;1756556;80;21554;-86
2021/04/02 08:35:17;;;;;;;10.68;4.40;;;;;;;10.46;63.21;101372.66;1756656;81;21254;-85
2021/04/02 08:38:03;;;;;;;5.55;3.80;;;;;;;10.16;63.21;101371.10;1722669;81;21652;-86
2021/04/02 08:40:33;;;;;;;10.00;5.95;;;;;;;9.96;63.28;101375.61;1756561;81;21894;-86
2021/04/02 08:43:05;;;;;;;6.03;4.70;;;;;;;9.80;63.55;101377.67;1756306;81;21598;-85
2021/04/02 08:45:36;;;;;;;8.25;4.30;;;;;;;9.63;63.50;101378.73;1769849;80;21179;-86
2021/04/02 08:48:03;;;;;;;8.18;4.87;;;;;;;9.49;63.70;101379.52;1780852;80;21137;-87
2021/04/02 08:50:31;;;;;;;4.67;3.90;;;;;;;9.43;64.17;101381.48;1780754;80;21216;-85
2021/04/02 08:53:07;;;;;;;9.08;7.00;;;;;;;9.44;64.15;101372.78;1781000;80;21878;-90
2021/04/02 08:55:34;;;;;;;6.78;4.05;;;;;;;9.46;64.10;101371.50;1780963;80;21165;-85
2021/04/02 08:58:03;;;;;;;7.97;4.25;;;;;;;9.45;64.13;101364.05;1780887;80;21200;-85
2021/04/02 09:00:32;;;;;;;7.00;3.60;;;;;;;9.47;64.14;101371.57;1784078;80;21230;-85
2021/04/02 09:03:02;;;;;;;4.28;3.65;;;;;;;9.50;63.95;101364.25;1766084;80;21179;-87
2021/04/02 09:05:29;;;;;;;8.85;3.37;;;;;;;9.51;63.89;101356.82;1787793;80;22925;-87
2021/04/02 09:07:59;;;;;;;7.53;5.58;;;;;;;9.52;63.58;101356.00;1787242;80;21172;-86
2021/04/02 09:10:26;;;;;;;5.45;3.62;;;;;;;9.54;63.20;101360.47;1778365;80;21157;-88
2021/04/02 09:12:59;;;;;;;4.92;4.00;;;;;;;9.56;62.72;101353.96;1787356;80;21100;-87
2021/04/02 09:15:31;;;;;;;5.25;3.75;;;;;;;9.56;62.50;101352.64;1787377;80;21259;-84
2021/04/02 09:18:19;;;;;;;4.78;3.70;;;;;;;9.56;62.10;101347.81;1787045;80;22904;-84
2021/04/02 09:20:46;;;;;;;6.25;4.67;;;;;;;9.53;61.94;101345.95;1730024;81;21298;-84
2021/04/02 09:23:13;;;;;;;7.15;3.85;;;;;;;9.54;61.61;101342.50;1705738;82;21238;-85
2021/04/02 09:25:44;;;;;;;7.42;3.60;;;;;;;9.53;61.51;101340.30;1729924;82;21673;-85
2021/04/02 09:28:11;;;;;;;6.55;3.52;;;;;;;9.46;61.11;101324.20;1729905;82;21207;-84
2021/04/02 09:30:38;;;;;;;5.75;3.60;;;;;;;9.51;60.78;101338.00;1730064;82;21962;-85
2021/04/02 09:33:06;;;;;;;5.53;3.72;;;;;;;9.50;60.81;101336.66;1730121;82;21183;-86
2021/04/02 09:35:34;;;;;;;5.40;3.15;;;;;;;9.51;60.58;101327.48;1730175;82;21176;-88
2021/04/02 09:38:01;;;;;;;4.33;3.37;;;;;;;9.54;60.82;101321.05;1730154;82;21163;-94
2021/04/02 09:40:28;;;;;;;3.90;3.47;;;;;;;9.60;60.77;101326.06;1735210;82;21266;-91
2021/04/02 09:42:55;;;;;;;4.95;3.10;;;;;;;9.66;60.41;101326.30;1730659;82;22779;-90
2021/04/02 09:45:26;;;;;;;4.72;2.77;;;;;;;9.64;59.85;101318.77;1730479;82;21139;-90
2021/04/02 09:47:53;;;;;;;3.52;3.02;;;;;;;9.64;59.98;101318.77;1730118;82;21208;-86
2021/04/02 09:50:20;;;;;;;4.97;3.15;;;;;;;9.71;60.18;101313.80;1730268;82;21509;-88
2021/04/02 09:52:48;;;;;;;4.62;2.85;;;;;;;9.85;60.22;101306.84;1730686;82;21243;-91
2021/04/02 09:55:16;;;;;;;6.03;2.65;;;;;;;9.96;59.82;101312.50;1741461;82;21966;-89
2021/04/02 09:57:43;;;;;;;4.70;2.95;;;;;;;9.96;59.18;101296.72;1748776;82;21600;-87
2021/04/02 10:00:12;;;;;;;5.22;2.55;;;;;;;9.98;58.50;101301.61;1748698;82;21149;-87
2021/04/02 10:02:39;;;;;;;3.02;2.00;;;;;;;9.96;58.24;101303.30;1748858;82;21216;-87
2021/04/02 10:05:10;;;;;;;5.55;2.67;;;;;;;9.96;57.80;101297.61;1774480;80;21172;-90
2021/04/02 10:07:37;;;;;;;7.95;3.40;;;;;;;10.02;57.50;101294.30;1779724;80;21953;-88
2021/04/02 10:10:06;;;;;;;5.47;2.70;;;;;;;10.01;57.34;101290.78;1781259;80;21141;-92
2021/04/02 10:12:33;;;;;;;5.53;2.67;;;;;;;10.03;57.22;101290.84;1787360;80;21187;-86
2021/04/02 10:15:01;;;;;;;3.92;2.70;;;;;;;10.03;56.54;101284.27;1787470;80;21192;-89
2021/04/02 10:17:28;;;;;;;5.85;2.62;;;;;;;10.03;56.36;101279.02;1787551;80;21164;-87
2021/04/02 10:19:55;;;;;;;6.15;2.60;;;;;;;10.08;56.26;101286.22;1783437;80;22861;-86
2021/04/02 10:22:22;;;;;;;4.92;2.90;;;;;;;10.13;56.04;101271.91;1781002;80;21144;-87
2021/04/02 10:24:51;;;;;;;2.00;1.80;;;;;;;10.18;56.11;101269.02;1780314;80;21879;-86
2021/04/02 10:27:18;;;;;;;3.27;2.17;;;;;;;10.26;55.38;101269.28;1780278;80;22536;-87
2021/04/02 10:29:47;;;;;;;4.15;2.30;;;;;;;10.30;55.01;101266.86;1768733;78;21225;-94
2021/04/02 10:32:15;;;;;;;6.85;2.75;;;;;;;10.32;54.66;101270.84;1774575;78;21898;-87
2021/04/02 10:34:42;;;;;;;5.87;4.45;;;;;;;10.37;54.35;101276.27;1793178;78;21219;-88
2021/04/02 10:37:09;;;;;;;10.15;7.55;;;;;;;10.36;53.35;101281.05;1820935;78;21198;-91
2021/04/02 10:39:36;;;;;;;5.08;4.10;;;;;;;10.24;52.64;101274.92;1820936;78;21558;-90
2021/04/02 10:42:03;;;;;;;5.33;3.87;;;;;;;10.19;52.66;101272.54;1820602;78;21201;-89
2021/04/02 10:44:31;;;;;;;7.03;3.35;;;;;;;10.17;52.70;101271.59;1820913;78;21871;-92
2021/04/02 10:46:58;;;;;;;4.33;3.12;;;;;;;10.14;52.46;101275.02;1821417;78;21228;-95
2021/04/02 10:49:25;;;;;;;5.53;3.37;;;;;;;10.21;53.06;101271.77;1821140;78;21140;-92
2021/04/02 10:51:52;;;;;;;9.33;3.50;;;;;;;10.34;53.06;101280.99;1820736;78;21558;-93
2021/04/02 10:54:19;;;;;;;4.55;3.58;;;;;;;10.44;52.77;101279.16;1819267;78;21715;-93
2021/04/02 10:56:46;;;;;;;7.25;3.85;;;;;;;10.48;52.31;101279.73;1778489;78;21954;-95
2021/04/02 11:01:59;;;;;;;5.37;3.67;;;;;;;10.46;52.10;101276.59;1866344;76;22707;-81
2021/04/02 11:04:26;;;;;;;5.33;3.77;;;;;;;10.46;51.93;101285.38;1819367;78;21140;-83
2021/04/02 11:06:53;;;;;;;5.05;3.55;;;;;;;10.46;51.24;101281.42;1819421;77;21884;-81
2021/04/02 11:09:20;;;;;;;7.65;3.55;;;;;;;10.39;51.36;101275.47;1819384;78;21211;-81
2021/04/02 11:11:55;;;;;;;6.47;3.45;;;;;;;10.44;52.05;101273.02;1819498;78;21203;-83
2021/04/02 11:14:24;;;;;;;5.10;3.05;;;;;;;10.63;51.97;101264.88;1819552;78;21108;-81
2021/04/02 11:16:54;;;;;;;6.20;3.35;;;;;;;10.84;51.84;101270.38;1818537;78;21128;-81
2021/04/02 11:19:21;;;;;;;5.97;3.02;;;;;;;11.03;51.84;101271.41;1819498;78;21930;-82
2021/04/02 11:21:48;;;;;;;5.00;2.65;;;;;;;11.23;51.50;101265.45;1819406;78;21179;-84
2021/04/02 11:24:15;;;;;;;7.97;2.85;;;;;;;11.40;51.15;101267.72;1819619;78;21175;-82
2021/04/02 11:26:42;;;;;;;2.52;2.12;;;;;;;11.52;50.79;101267.17;1819347;78;21212;-82
2021/04/02 11:29:10;;;;;;;3.50;2.45;;;;;;;11.57;50.39;101276.12;1819506;78;21408;-82
2021/04/02 11:31:42;;;;;;;4.47;2.25;;;;;;;11.63;50.35;101267.95;1819446;78;22795;-82
2021/04/02 11:34:26;;;;;;;;;;;;;;;11.77;50.36;101274.96;1821874;78;21172;-82
2021/04/02 11:36:53;;;;;;;4.95;2.00;;;;;;;11.91;49.81;101273.16;1818646;77;20226;-82
2021/04/02 11:39:29;;;;;;;3.52;1.40;;;;;;;11.98;49.24;101276.45;1821254;77;21686;-82
2021/04/02 11:42:01;;;;;;;4.10;1.70;;;;;;;11.89;48.48;101266.48;1784526;80;21195;-83
2021/04/02 11:44:24;;;;;;;3.77;1.35;;;;;;;11.80;48.69;101260.95;1784850;80;21905;-82
2021/04/02 11:46:51;;;;;;;5.95;1.25;;;;;;;11.79;48.54;101261.39;1786890;80;21167;-82
2021/04/02 11:49:32;;;;;;;;;;;;;;;;;;;;;